createdAt,value
2019-05-21T00:01:53.479Z,96150.00
2019-05-21T00:04:28.400Z,96150.00
2019-05-21T00:06:57.753Z,96143.00
2019-05-21T00:09:29.072Z,96150.00
2019-05-21T00:12:00.566Z,96153.00
2019-05-21T00:14:31.896Z,96146.00
2019-05-21T00:17:03.179Z,96153.00
2019-05-21T00:19:35.469Z,96150.00
2019-05-21T00:22:06.717Z,96146.00
2019-05-21T00:24:38.143Z,96157.00
2019-05-21T00:27:09.763Z,96151.00
2019-05-21T00:30:34.262Z,96155.00
2019-05-21T00:33:58.926Z,96140.00
2019-05-21T00:37:23.886Z,96142.00
2019-05-21T00:40:48.707Z,96153.00
2019-05-21T00:43:24.981Z,96157.00
2019-05-21T00:45:56.389Z,96138.00
2019-05-21T00:48:27.777Z,96148.00
2019-05-21T00:50:59.206Z,96141.00
2019-05-21T00:53:30.606Z,96154.00
2019-05-21T00:56:01.997Z,96149.00
2019-05-21T00:58:33.411Z,96135.00
2019-05-21T01:01:05.106Z,96158.00
2019-05-21T01:03:36.486Z,96155.00
2019-05-21T01:06:08.989Z,96142.00
2019-05-21T01:08:40.343Z,96156.00
2019-05-21T01:11:11.791Z,96157.00
2019-05-21T01:13:43.141Z,96148.00
2019-05-21T01:16:14.591Z,96145.00
2019-05-21T01:18:46.100Z,96153.00
2019-05-21T01:21:17.566Z,96153.00
2019-05-21T01:23:48.953Z,96155.00
2019-05-21T01:26:21.317Z,96167.00
2019-05-21T01:28:52.758Z,96158.00
2019-05-21T01:31:24.112Z,96169.00
2019-05-21T01:33:55.494Z,96152.00
2019-05-21T01:36:26.810Z,96167.00
2019-05-21T01:38:58.246Z,96165.00
2019-05-21T01:41:29.595Z,96147.00
2019-05-21T01:44:00.957Z,96162.00
2019-05-21T01:46:32.329Z,96152.00
2019-05-21T01:49:03.765Z,96159.00
2019-05-21T01:51:35.176Z,96171.00
2019-05-21T01:54:06.539Z,96160.00
2019-05-21T01:56:37.972Z,96158.00
2019-05-21T01:59:09.328Z,96165.00
2019-05-21T02:01:40.739Z,96166.00
2019-05-21T02:04:12.119Z,96163.00
2019-05-21T02:06:43.673Z,96169.00
2019-05-21T02:09:15.121Z,96175.00
2019-05-21T02:11:46.495Z,96149.00
2019-05-21T02:14:17.905Z,96160.00
2019-05-21T02:16:49.312Z,96160.00
2019-05-21T02:19:20.795Z,96158.00
2019-05-21T02:21:52.166Z,96158.00
2019-05-21T02:24:23.579Z,96152.00
2019-05-21T02:26:54.951Z,96161.00
2019-05-21T02:29:26.398Z,96157.00
2019-05-21T02:31:57.732Z,96149.00
2019-05-21T02:34:29.126Z,96154.00
2019-05-21T02:37:00.452Z,96156.00
2019-05-21T02:39:31.813Z,96165.00
2019-05-21T02:42:03.196Z,96156.00
2019-05-21T02:44:34.585Z,96152.00
2019-05-21T02:47:05.972Z,96153.00
2019-05-21T02:49:37.417Z,96156.00
2019-05-21T02:52:08.856Z,96151.00
2019-05-21T02:54:42.114Z,96171.00
2019-05-21T02:57:13.597Z,96167.00
2019-05-21T02:59:46.667Z,96153.00
2019-05-21T03:02:28.414Z,96159.00
2019-05-21T03:04:59.853Z,96161.00
2019-05-21T03:07:31.253Z,96161.00
2019-05-21T03:10:02.734Z,96155.00
2019-05-21T03:12:34.146Z,96180.00
2019-05-21T03:15:05.796Z,96166.00
2019-05-21T03:17:37.273Z,96168.00
2019-05-21T03:20:08.913Z,96177.00
2019-05-21T03:22:40.302Z,96172.00
2019-05-21T03:25:12.335Z,96186.00
2019-05-21T03:27:43.689Z,96165.00
2019-05-21T03:30:16.065Z,96189.00
2019-05-21T03:32:47.521Z,96178.00
2019-05-21T03:35:19.189Z,96180.00
2019-05-21T03:37:50.627Z,96178.00
2019-05-21T03:40:22.061Z,96180.00
2019-05-21T03:42:53.457Z,96185.00
2019-05-21T03:45:25.887Z,96177.00
2019-05-21T03:47:57.337Z,96179.00
2019-05-21T03:50:28.731Z,96173.00
2019-05-21T03:53:00.136Z,96191.00
2019-05-21T03:55:31.584Z,96186.00
2019-05-21T03:58:02.963Z,96179.00
2019-05-21T04:00:34.418Z,96194.00
2019-05-21T04:03:06.140Z,96186.00
2019-05-21T04:05:37.567Z,96188.00
2019-05-21T04:08:09.025Z,96192.00
2019-05-21T04:10:40.478Z,96187.00
2019-05-21T04:13:11.961Z,96203.00
2019-05-21T04:15:59.152Z,96194.00
2019-05-21T04:18:41.702Z,96205.00
2019-05-21T04:21:13.150Z,96205.00
2019-05-21T04:23:44.715Z,96207.00
2019-05-21T04:26:16.161Z,96207.00
2019-05-21T04:28:47.925Z,96208.00
2019-05-21T04:31:19.395Z,96203.00
2019-05-21T04:33:50.929Z,96219.00
2019-05-21T04:36:22.459Z,96197.00
2019-05-21T04:38:54.010Z,96212.00
2019-05-21T04:41:25.426Z,96211.00
2019-05-21T04:43:56.904Z,96211.00
2019-05-21T04:46:28.486Z,96213.00
2019-05-21T04:49:00.051Z,96216.00
2019-05-21T04:51:31.619Z,96222.00
2019-05-21T04:54:03.138Z,96217.00
2019-05-21T04:56:34.705Z,96214.00
2019-05-21T04:59:06.313Z,96222.00
2019-05-21T05:01:37.795Z,96229.00
2019-05-21T05:04:09.475Z,96228.00
2019-05-21T05:06:40.976Z,96235.00
2019-05-21T05:09:12.550Z,96227.00
2019-05-21T05:11:45.436Z,96228.00
2019-05-21T05:14:16.833Z,96223.00
2019-05-21T05:16:48.279Z,96245.00
2019-05-21T05:19:19.815Z,96234.00
2019-05-21T05:21:51.157Z,96238.00
2019-05-21T05:24:22.651Z,96227.00
2019-05-21T05:26:54.108Z,96247.00
2019-05-21T05:29:25.671Z,96242.00
2019-05-21T05:31:57.183Z,96253.00
2019-05-21T05:34:28.615Z,96255.00
2019-05-21T05:37:00.136Z,96254.00
2019-05-21T05:39:31.685Z,96253.00
2019-05-21T05:42:05.646Z,96256.00
2019-05-21T05:44:37.139Z,96262.00
2019-05-21T05:47:08.544Z,96267.00
2019-05-21T05:49:44.122Z,96263.00
2019-05-21T05:52:15.534Z,96260.00
2019-05-21T05:54:47.094Z,96265.00
2019-05-21T05:57:18.546Z,96270.00
2019-05-21T05:59:50.079Z,96259.00
2019-05-21T06:02:27.183Z,96275.00
2019-05-21T06:05:34.417Z,96270.00
2019-05-21T06:08:02.496Z,96269.00
2019-05-21T06:10:33.926Z,96270.00
2019-05-21T06:13:05.280Z,96285.00
2019-05-21T06:15:36.757Z,96279.00
2019-05-21T06:18:08.214Z,96282.00
2019-05-21T06:20:39.626Z,96279.00
2019-05-21T06:23:11.007Z,96282.00
2019-05-21T06:25:42.410Z,96287.00
2019-05-21T06:28:43.571Z,96281.00
2019-05-21T06:31:15.002Z,96308.00
2019-05-21T06:33:46.382Z,96300.00
2019-05-21T06:36:17.837Z,96293.00
2019-05-21T06:38:49.156Z,96298.00
2019-05-21T06:41:20.690Z,96314.00
2019-05-21T06:43:52.048Z,96304.00
2019-05-21T06:46:25.269Z,96322.00
2019-05-21T06:48:56.659Z,96319.00
2019-05-21T06:51:28.158Z,96315.00
2019-05-21T06:54:00.509Z,96322.00
2019-05-21T06:56:31.929Z,96331.00
2019-05-21T06:59:03.308Z,96321.00
2019-05-21T07:01:34.787Z,96329.00
2019-05-21T07:04:24.512Z,96328.00
2019-05-21T07:06:55.972Z,96328.00
2019-05-21T07:09:27.352Z,96335.00
2019-05-21T07:11:58.752Z,96327.00
2019-05-21T07:14:30.142Z,96335.00
2019-05-21T07:17:01.568Z,96346.00
2019-05-21T07:19:33.090Z,96331.00
2019-05-21T07:22:12.846Z,96337.00
2019-05-21T07:24:37.569Z,96342.00
2019-05-21T07:27:08.986Z,96352.00
2019-05-21T07:29:40.382Z,96349.00
2019-05-21T07:32:11.798Z,96347.00
2019-05-21T07:34:44.243Z,96343.00
2019-05-21T07:37:15.740Z,96349.00
2019-05-21T07:39:47.215Z,96344.00
2019-05-21T07:42:18.877Z,96343.00
2019-05-21T07:44:50.339Z,96363.00
2019-05-21T07:47:21.760Z,96366.00
2019-05-21T07:49:53.165Z,96355.00
2019-05-21T07:52:24.603Z,96352.00
2019-05-21T07:54:55.993Z,96347.00
2019-05-21T07:57:27.427Z,96355.00
2019-05-21T07:59:58.870Z,96341.00
2019-05-21T08:02:30.331Z,96348.00
2019-05-21T08:05:02.370Z,96368.00
2019-05-21T08:07:34.082Z,96367.00
2019-05-21T08:10:07.106Z,96356.00
2019-05-21T08:12:39.849Z,96358.00
2019-05-21T08:15:13.155Z,96365.00
2019-05-21T08:17:44.695Z,96374.00
2019-05-21T08:20:20.782Z,96368.00
2019-05-21T08:22:52.243Z,96371.00
2019-05-21T08:25:23.740Z,96387.00
2019-05-21T08:27:55.307Z,96384.00
2019-05-21T08:30:26.675Z,96383.00
2019-05-21T08:32:58.198Z,96389.00
2019-05-21T08:35:29.628Z,96389.00
2019-05-21T08:38:01.169Z,96382.00
2019-05-21T08:40:32.583Z,96383.00
2019-05-21T08:43:04.036Z,96386.00
2019-05-21T08:45:35.363Z,96384.00
2019-05-21T08:48:06.871Z,96400.00
2019-05-21T08:50:38.278Z,96389.00
2019-05-21T08:53:09.664Z,96403.00
2019-05-21T08:55:41.084Z,96398.00
2019-05-21T08:58:13.513Z,96402.00
2019-05-21T09:00:44.977Z,96402.00
2019-05-21T09:03:16.421Z,96406.00
2019-05-21T09:05:48.961Z,96418.00
2019-05-21T09:08:21.330Z,96415.00
2019-05-21T09:10:52.792Z,96408.00
2019-05-21T09:13:24.256Z,96411.00
2019-05-21T09:15:55.754Z,96414.00
2019-05-21T09:18:27.219Z,96416.00
2019-05-21T09:20:58.644Z,96421.00
2019-05-21T09:23:30.147Z,96430.00
2019-05-21T09:26:01.520Z,96421.00
2019-05-21T09:28:32.961Z,96419.00
2019-05-21T09:31:05.717Z,96426.00
2019-05-21T09:33:37.154Z,96431.00
2019-05-21T09:36:08.664Z,96438.00
2019-05-21T09:38:40.014Z,96435.00
2019-05-21T09:41:12.598Z,96444.00
2019-05-21T09:43:43.987Z,96435.00
2019-05-21T09:46:15.503Z,96449.00
2019-05-21T09:48:46.907Z,96431.00
2019-05-21T09:51:20.222Z,96437.00
2019-05-21T09:53:51.461Z,96453.00
2019-05-21T09:56:35.192Z,96441.00
2019-05-21T09:59:20.971Z,96439.00
2019-05-21T10:01:55.300Z,96452.00
2019-05-21T10:04:26.647Z,96449.00
2019-05-21T10:06:59.101Z,96455.00
2019-05-21T10:09:30.538Z,96456.00
2019-05-21T10:12:02.157Z,96456.00
2019-05-21T10:14:34.376Z,96470.00
2019-05-21T10:17:06.051Z,96469.00
2019-05-21T10:19:37.482Z,96469.00
2019-05-21T10:22:09.270Z,96469.00
2019-05-21T10:24:41.011Z,96474.00
2019-05-21T10:27:12.555Z,96476.00
2019-05-21T10:29:44.016Z,96467.00
2019-05-21T10:32:15.450Z,96470.00
2019-05-21T10:34:47.083Z,96475.00
2019-05-21T10:37:18.554Z,96466.00
2019-05-21T10:39:50.173Z,96479.00
2019-05-21T10:42:21.599Z,96480.00
2019-05-21T10:44:52.997Z,96487.00
2019-05-21T10:47:24.504Z,96489.00
2019-05-21T10:49:55.955Z,96475.00
2019-05-21T10:52:27.427Z,96494.00
2019-05-21T10:54:58.857Z,96500.00
2019-05-21T10:57:30.284Z,96502.00
2019-05-21T11:00:01.912Z,96499.00
2019-05-21T11:02:55.280Z,96498.00
2019-05-21T11:05:33.421Z,96497.00
2019-05-21T11:08:22.778Z,96507.00
2019-05-21T11:10:39.105Z,96506.00
2019-05-21T11:13:10.518Z,96497.00
2019-05-21T11:15:41.890Z,96499.00
2019-05-21T11:18:13.329Z,96512.00
2019-05-21T11:20:44.720Z,96494.00
2019-05-21T11:23:16.135Z,96508.00
2019-05-21T11:25:47.497Z,96502.00
2019-05-21T11:28:19.072Z,96509.00
2019-05-21T11:30:50.586Z,96511.00
2019-05-21T11:33:21.905Z,96510.00
2019-05-21T11:35:53.259Z,96512.00
2019-05-21T11:38:39.091Z,96518.00
2019-05-21T11:40:57.847Z,96526.00
2019-05-21T11:43:29.306Z,96526.00
2019-05-21T11:46:02.992Z,96537.00
2019-05-21T11:48:33.932Z,96533.00
2019-05-21T11:51:05.360Z,96549.00
2019-05-21T11:53:36.907Z,96532.00
2019-05-21T11:56:08.323Z,96534.00
2019-05-21T11:58:40.177Z,96546.00
2019-05-21T12:01:11.608Z,96548.00
2019-05-21T12:03:43.030Z,96553.00
2019-05-21T12:06:14.427Z,96548.00
2019-05-21T12:08:56.355Z,96549.00
2019-05-21T12:11:18.989Z,96536.00
2019-05-21T12:13:52.154Z,96546.00
2019-05-21T12:16:23.581Z,96551.00
2019-05-21T12:18:55.068Z,96555.00
2019-05-21T12:21:26.608Z,96558.00
2019-05-21T12:23:58.055Z,96558.00
2019-05-21T12:26:29.469Z,96557.00
2019-05-21T12:29:01.038Z,96560.00
2019-05-21T12:31:32.366Z,96567.00
2019-05-21T12:34:03.754Z,96569.00
2019-05-21T12:36:35.190Z,96565.00
2019-05-21T12:39:14.174Z,96564.00
2019-05-21T12:41:41.043Z,96577.00
2019-05-21T12:44:12.403Z,96566.00
2019-05-21T12:46:43.801Z,96581.00
2019-05-21T12:49:15.160Z,96571.00
2019-05-21T12:51:47.679Z,96581.00
2019-05-21T12:54:19.021Z,96572.00
2019-05-21T12:56:50.331Z,96570.00
2019-05-21T12:59:21.810Z,96568.00
2019-05-21T13:01:53.135Z,96583.00
2019-05-21T13:04:24.542Z,96561.00
2019-05-21T13:06:55.963Z,96567.00
2019-05-21T13:09:32.660Z,96568.00
2019-05-21T13:12:00.342Z,96580.00
2019-05-21T13:14:31.719Z,96584.00
2019-05-21T13:17:03.084Z,96585.00
2019-05-21T13:19:34.473Z,96594.00
2019-05-21T13:22:05.942Z,96596.00
2019-05-21T13:24:37.329Z,96593.00
2019-05-21T13:27:08.690Z,96608.00
2019-05-21T13:29:40.085Z,96607.00
2019-05-21T13:32:11.477Z,96609.00
2019-05-21T13:34:42.860Z,96618.00
2019-05-21T13:37:14.540Z,96620.00
2019-05-21T13:39:50.184Z,96623.00
2019-05-21T13:42:20.254Z,96626.00
2019-05-21T13:44:51.606Z,96630.00
2019-05-21T13:47:22.953Z,96635.00
2019-05-21T13:49:54.354Z,96629.00
2019-05-21T13:52:25.734Z,96653.00
2019-05-21T13:54:57.086Z,96652.00
2019-05-21T13:57:28.444Z,96653.00
2019-05-21T13:59:59.919Z,96656.00
2019-05-21T14:02:31.383Z,96654.00
2019-05-21T14:05:03.264Z,96659.00
2019-05-21T14:07:34.852Z,96655.00
2019-05-21T14:10:19.424Z,96659.00
2019-05-21T14:12:39.975Z,96670.00
2019-05-21T14:15:11.709Z,96667.00
2019-05-21T14:17:43.087Z,96666.00
2019-05-21T14:20:15.255Z,96672.00
2019-05-21T14:22:46.588Z,96680.00
2019-05-21T14:25:18.195Z,96677.00
2019-05-21T14:27:49.521Z,96691.00
2019-05-21T14:30:21.151Z,96693.00
2019-05-21T14:32:52.681Z,96692.00
2019-05-21T14:35:24.066Z,96702.00
2019-05-21T14:37:55.447Z,96711.00
2019-05-21T14:40:32.226Z,96701.00
2019-05-21T14:43:00.945Z,96710.00
2019-05-21T14:45:34.149Z,96713.00
2019-05-21T14:48:05.976Z,96710.00
2019-05-21T14:50:37.336Z,96718.00
2019-05-21T14:53:08.854Z,96715.00
2019-05-21T14:55:40.272Z,96726.00
2019-05-21T14:58:11.651Z,96717.00
2019-05-21T15:00:44.011Z,96732.00
2019-05-21T15:03:24.822Z,96723.00
2019-05-21T15:05:48.558Z,96721.00
2019-05-21T15:08:19.940Z,96731.00
2019-05-21T15:10:51.289Z,96724.00
2019-05-21T15:13:22.655Z,96728.00
2019-05-21T15:15:54.057Z,96725.00
2019-05-21T15:18:25.426Z,96739.00
2019-05-21T15:21:08.134Z,96728.00
2019-05-21T15:23:39.741Z,96747.00
2019-05-21T15:26:12.717Z,96747.00
2019-05-21T15:28:44.119Z,96745.00
2019-05-21T15:31:15.489Z,96755.00
2019-05-21T15:33:46.865Z,96746.00
2019-05-21T15:36:18.281Z,96750.00
2019-05-21T15:38:51.184Z,96766.00
2019-05-21T15:41:23.670Z,96752.00
2019-05-21T15:43:55.048Z,96767.00
2019-05-21T15:46:26.573Z,96772.00
2019-05-21T15:48:57.971Z,96776.00
2019-05-21T15:51:29.322Z,96769.00
2019-05-21T15:54:01.172Z,96779.00
2019-05-21T15:56:33.664Z,96778.00
2019-05-21T15:59:06.010Z,96777.00
2019-05-21T16:01:40.542Z,96785.00
2019-05-21T16:04:10.749Z,96788.00
2019-05-21T16:06:42.097Z,96803.00
2019-05-21T16:09:13.551Z,96798.00
2019-05-21T16:11:44.888Z,96820.00
2019-05-21T16:14:16.286Z,96817.00
2019-05-21T16:16:47.654Z,96811.00
2019-05-21T16:19:19.031Z,96816.00
2019-05-21T16:21:50.385Z,96819.00
2019-05-21T16:24:21.719Z,96824.00
2019-05-21T16:26:57.539Z,96826.00
2019-05-21T16:29:29.085Z,96828.00
2019-05-21T16:32:02.114Z,96831.00
2019-05-21T16:34:33.704Z,96840.00
2019-05-21T16:37:08.980Z,96839.00
2019-05-21T16:39:40.568Z,96843.00
2019-05-21T16:42:19.250Z,96839.00
2019-05-21T16:44:50.773Z,96837.00
2019-05-21T16:47:22.391Z,96842.00
2019-05-21T16:49:53.878Z,96844.00
2019-05-21T16:52:25.338Z,96861.00
2019-05-21T17:00:12.519Z,96857.00
2019-05-21T17:02:55.315Z,96854.00
2019-05-21T17:05:26.764Z,96852.00
2019-05-21T17:07:58.304Z,96864.00
2019-05-21T17:10:29.897Z,96870.00
2019-05-21T17:13:01.428Z,96879.00
2019-05-21T17:15:33.735Z,96882.00
2019-05-21T17:18:06.172Z,96886.00
2019-05-21T17:20:37.521Z,96879.00
2019-05-21T17:23:08.913Z,96872.00
2019-05-21T17:25:41.487Z,96885.00
2019-05-21T17:28:12.866Z,96892.00
2019-05-21T17:30:44.251Z,96897.00
2019-05-21T17:33:15.712Z,96891.00
2019-05-21T17:35:47.065Z,96899.00
2019-05-21T17:38:18.459Z,96895.00
2019-05-21T17:40:49.822Z,96912.00
2019-05-21T17:43:21.238Z,96908.00
2019-05-21T17:45:52.928Z,96901.00
2019-05-21T17:48:24.561Z,96912.00
2019-05-21T17:50:55.934Z,96911.00
2019-05-21T17:53:27.327Z,96924.00
2019-05-21T17:55:58.699Z,96908.00
2019-05-21T17:58:30.073Z,96925.00
2019-05-21T18:01:03.612Z,96930.00
2019-05-21T18:03:35.032Z,96930.00
2019-05-21T18:06:08.086Z,96925.00
2019-05-21T18:08:40.274Z,96925.00
2019-05-21T18:11:12.255Z,96944.00
2019-05-21T18:13:47.771Z,96934.00
2019-05-21T18:16:17.581Z,96943.00
2019-05-21T18:18:49.224Z,96953.00
2019-05-21T18:21:20.781Z,96945.00
2019-05-21T18:23:52.407Z,96947.00
2019-05-21T18:26:23.809Z,96962.00
2019-05-21T18:29:00.382Z,96958.00
2019-05-21T18:31:31.996Z,96973.00
2019-05-21T18:34:03.549Z,96972.00
2019-05-21T18:36:35.432Z,96971.00
2019-05-21T18:43:07.472Z,96985.00
2019-05-21T18:45:39.247Z,96992.00
2019-05-21T18:48:10.924Z,96998.00
2019-05-21T18:50:42.664Z,96992.00
2019-05-21T18:53:14.302Z,97002.00
2019-05-21T18:55:45.849Z,96997.00
2019-05-21T18:58:17.900Z,97018.00
2019-05-21T19:00:49.658Z,97019.00
2019-05-21T19:03:25.859Z,97007.00
2019-05-21T19:05:55.593Z,97019.00
2019-05-21T19:08:27.151Z,97029.00
2019-05-21T19:10:58.732Z,97030.00
2019-05-21T19:13:30.431Z,97039.00
2019-05-21T19:16:02.034Z,97042.00
2019-05-21T19:18:33.713Z,97034.00
2019-05-21T19:21:05.599Z,97051.00
2019-05-21T19:23:37.255Z,97053.00
2019-05-21T19:26:08.785Z,97050.00
2019-05-21T19:28:40.613Z,97068.00
2019-05-21T19:31:12.847Z,97071.00
2019-05-21T19:33:44.585Z,97065.00
2019-05-21T19:36:16.573Z,97065.00
2019-05-21T19:38:48.334Z,97069.00
2019-05-21T19:41:19.989Z,97081.00
2019-05-21T19:43:51.583Z,97087.00
2019-05-21T19:46:23.239Z,97076.00
2019-05-21T19:48:55.040Z,97089.00
2019-05-21T19:51:26.732Z,97086.00
2019-05-21T19:53:58.333Z,97089.00
2019-05-21T19:56:29.839Z,97103.00
2019-05-21T19:59:01.612Z,97101.00
2019-05-21T20:01:34.683Z,97107.00
2019-05-21T20:04:06.822Z,97104.00
2019-05-21T20:06:38.552Z,97114.00
2019-05-21T20:09:14.797Z,97111.00
2019-05-21T20:11:46.676Z,97121.00
2019-05-21T20:14:18.300Z,97114.00
2019-05-21T20:16:50.004Z,97109.00
2019-05-21T20:19:24.080Z,97131.00
2019-05-21T20:21:55.593Z,97123.00
2019-05-21T20:24:27.215Z,97127.00
2019-05-21T20:26:59.034Z,97131.00
2019-05-21T20:29:31.136Z,97129.00
2019-05-21T20:32:02.794Z,97131.00
2019-05-21T20:34:35.203Z,97137.00
2019-05-21T20:37:10.035Z,97129.00
2019-05-21T20:39:42.503Z,97125.00
2019-05-21T20:42:17.944Z,97142.00
2019-05-21T20:44:49.685Z,97125.00
2019-05-21T20:47:21.137Z,97127.00
2019-05-21T20:49:52.939Z,97135.00
2019-05-21T20:52:24.496Z,97140.00
2019-05-21T20:54:58.240Z,97135.00
2019-05-21T20:57:30.738Z,97141.00
2019-05-21T21:00:02.266Z,97149.00
2019-05-21T21:02:37.492Z,97147.00
2019-05-21T21:05:09.866Z,97150.00
2019-05-21T21:07:41.783Z,97150.00
2019-05-21T21:10:14.540Z,97158.00
2019-05-21T21:12:46.053Z,97152.00
2019-05-21T21:15:17.651Z,97155.00
2019-05-21T21:17:49.084Z,97162.00
2019-05-21T21:20:20.983Z,97152.00
2019-05-21T21:22:53.732Z,97165.00
2019-05-21T21:25:26.221Z,97161.00
2019-05-21T21:27:57.685Z,97176.00
2019-05-21T21:30:29.212Z,97162.00
2019-05-21T21:33:01.114Z,97168.00
2019-05-21T21:35:34.163Z,97170.00
2019-05-21T21:38:07.318Z,97172.00
2019-05-21T21:40:39.027Z,97179.00
2019-05-21T21:43:10.635Z,97167.00
2019-05-21T21:45:42.094Z,97176.00
2019-05-21T21:48:14.888Z,97168.00
2019-05-21T21:50:46.983Z,97175.00
2019-05-21T21:53:18.906Z,97180.00
2019-05-21T21:55:50.465Z,97181.00
2019-05-21T21:58:21.819Z,97169.00
2019-05-21T22:01:32.704Z,97174.00
2019-05-21T22:04:06.931Z,97171.00
2019-05-21T22:06:41.741Z,97183.00
2019-05-21T22:09:27.191Z,97185.00
2019-05-21T22:11:59.992Z,97174.00
2019-05-21T22:14:32.556Z,97190.00
2019-05-21T22:17:04.282Z,97190.00
2019-05-21T22:19:36.000Z,97188.00
2019-05-21T22:26:08.136Z,97185.00
2019-05-21T22:28:39.598Z,97190.00
2019-05-21T22:31:10.957Z,97199.00
2019-05-21T22:33:42.403Z,97187.00
2019-05-21T22:36:14.012Z,97186.00
2019-05-21T22:38:45.445Z,97186.00
2019-05-21T22:41:17.012Z,97192.00
2019-05-21T22:43:49.424Z,97192.00
2019-05-21T22:46:20.803Z,97194.00
2019-05-21T22:48:52.304Z,97199.00
2019-05-21T22:51:25.778Z,97197.00
2019-05-21T22:53:56.898Z,97205.00
2019-05-21T22:56:28.263Z,97203.00
2019-05-21T22:58:59.698Z,97201.00
2019-05-21T23:01:32.838Z,97206.00
2019-05-21T23:04:04.436Z,97198.00
2019-05-21T23:06:35.806Z,97210.00
2019-05-21T23:09:09.467Z,97207.00
2019-05-21T23:11:40.868Z,97212.00
2019-05-21T23:14:12.680Z,97204.00
2019-05-21T23:16:45.005Z,97206.00
2019-05-21T23:19:30.605Z,97203.00
2019-05-21T23:22:07.624Z,97206.00
2019-05-21T23:24:39.818Z,97214.00
2019-05-21T23:27:13.254Z,97212.00
2019-05-21T23:29:44.650Z,97218.00
2019-05-21T23:32:16.486Z,97218.00
2019-05-21T23:34:48.110Z,97226.00
2019-05-21T23:37:21.714Z,97225.00
2019-05-21T23:39:54.421Z,97214.00
2019-05-21T23:42:29.799Z,97223.00
2019-05-21T23:44:59.839Z,97217.00
2019-05-21T23:47:31.205Z,97218.00
2019-05-21T23:50:02.665Z,97232.00
2019-05-21T23:52:37.090Z,97218.00
2019-05-21T23:55:08.618Z,97227.00
2019-05-21T23:57:40.410Z,97209.00
